sensor_id;sensor_type;location;lat;lon;timestamp;P1;durP1;ratioP1;P2;durP2;ratioP2
38123;SDS011;23934;47.998;9.832;2024-02-15T00:01:40;5.07;;;2.42;;
38123;SDS011;23934;47.998;9.832;2024-02-15T00:04:06;4.93;;;2.28;;
38123;SDS011;23934;47.998;9.832;2024-02-15T00:06:32;9.90;;;3.05;;
38123;SDS011;23934;47.998;9.832;2024-02-15T00:08:58;6.22;;;2.45;;
38123;SDS011;23934;47.998;9.832;2024-02-15T00:11:24;9.60;;;2.25;;
38123;SDS011;23934;47.998;9.832;2024-02-15T00:13:50;4.63;;;2.30;;
38123;SDS011;23934;47.998;9.832;2024-02-15T00:16:16;4.65;;;2.83;;
38123;SDS011;23934;47.998;9.832;2024-02-15T00:18:42;7.97;;;2.95;;
38123;SDS011;23934;47.998;9.832;2024-02-15T00:21:08;4.45;;;2.40;;
38123;SDS011;23934;47.998;9.832;2024-02-15T00:23:34;3.58;;;2.25;;
38123;SDS011;23934;47.998;9.832;2024-02-15T00:26:00;8.80;;;2.53;;
38123;SDS011;23934;47.998;9.832;2024-02-15T00:28:26;8.30;;;2.67;;
38123;SDS011;23934;47.998;9.832;2024-02-15T00:30:52;11.80;;;3.60;;
38123;SDS011;23934;47.998;9.832;2024-02-15T00:33:18;6.60;;;3.17;;
38123;SDS011;23934;47.998;9.832;2024-02-15T00:35:44;7.00;;;2.55;;
38123;SDS011;23934;47.998;9.832;2024-02-15T00:38:10;8.13;;;3.30;;
38123;SDS011;23934;47.998;9.832;2024-02-15T00:40:35;5.35;;;2.92;;
38123;SDS011;23934;47.998;9.832;2024-02-15T00:43:01;8.65;;;2.80;;
38123;SDS011;23934;47.998;9.832;2024-02-15T00:45:27;5.68;;;2.88;;
38123;SDS011;23934;47.998;9.832;2024-02-15T00:47:53;8.32;;;3.38;;
38123;SDS011;23934;47.998;9.832;2024-02-15T00:50:21;5.25;;;2.97;;
38123;SDS011;23934;47.998;9.832;2024-02-15T00:52:46;4.18;;;1.90;;
38123;SDS011;23934;47.998;9.832;2024-02-15T00:55:12;5.53;;;2.55;;
38123;SDS011;23934;47.998;9.832;2024-02-15T00:57:38;7.50;;;2.30;;
38123;SDS011;23934;47.998;9.832;2024-02-15T01:00:05;5.47;;;2.70;;
38123;SDS011;23934;47.998;9.832;2024-02-15T01:02:34;4.57;;;2.13;;
38123;SDS011;23934;47.998;9.832;2024-02-15T01:05:01;4.82;;;2.20;;
38123;SDS011;23934;47.998;9.832;2024-02-15T01:07:27;5.40;;;2.15;;
38123;SDS011;23934;47.998;9.832;2024-02-15T01:09:53;3.53;;;2.20;;
38123;SDS011;23934;47.998;9.832;2024-02-15T01:12:19;4.10;;;2.13;;
38123;SDS011;23934;47.998;9.832;2024-02-15T01:14:45;6.30;;;2.50;;
38123;SDS011;23934;47.998;9.832;2024-02-15T01:17:12;3.85;;;1.92;;
38123;SDS011;23934;47.998;9.832;2024-02-15T01:19:38;5.00;;;2.10;;
38123;SDS011;23934;47.998;9.832;2024-02-15T01:22:04;6.35;;;2.10;;
38123;SDS011;23934;47.998;9.832;2024-02-15T01:24:31;21.83;;;2.75;;
38123;SDS011;23934;47.998;9.832;2024-02-15T01:26:57;5.30;;;2.40;;
38123;SDS011;23934;47.998;9.832;2024-02-15T01:29:23;7.88;;;2.45;;
38123;SDS011;23934;47.998;9.832;2024-02-15T01:31:50;6.45;;;2.38;;
38123;SDS011;23934;47.998;9.832;2024-02-15T01:34:16;4.55;;;2.28;;
38123;SDS011;23934;47.998;9.832;2024-02-15T01:36:42;4.57;;;2.47;;
38123;SDS011;23934;47.998;9.832;2024-02-15T01:39:08;7.68;;;2.90;;
38123;SDS011;23934;47.998;9.832;2024-02-15T01:41:35;10.77;;;2.85;;
38123;SDS011;23934;47.998;9.832;2024-02-15T01:44:01;4.78;;;2.13;;
38123;SDS011;23934;47.998;9.832;2024-02-15T01:46:27;10.40;;;2.75;;
38123;SDS011;23934;47.998;9.832;2024-02-15T01:48:54;6.47;;;2.58;;
38123;SDS011;23934;47.998;9.832;2024-02-15T01:51:21;7.50;;;2.80;;
38123;SDS011;23934;47.998;9.832;2024-02-15T01:53:48;8.80;;;2.42;;
38123;SDS011;23934;47.998;9.832;2024-02-15T01:56:14;9.05;;;2.55;;
38123;SDS011;23934;47.998;9.832;2024-02-15T01:58:41;5.88;;;2.67;;
38123;SDS011;23934;47.998;9.832;2024-02-15T02:01:07;6.25;;;3.30;;
38123;SDS011;23934;47.998;9.832;2024-02-15T02:03:33;5.47;;;2.72;;
38123;SDS011;23934;47.998;9.832;2024-02-15T02:06:00;5.15;;;2.58;;
38123;SDS011;23934;47.998;9.832;2024-02-15T02:08:26;6.00;;;2.95;;
38123;SDS011;23934;47.998;9.832;2024-02-15T02:10:52;6.28;;;2.30;;
38123;SDS011;23934;47.998;9.832;2024-02-15T02:13:18;6.65;;;2.17;;
38123;SDS011;23934;47.998;9.832;2024-02-15T02:15:44;4.85;;;2.22;;
38123;SDS011;23934;47.998;9.832;2024-02-15T02:18:10;7.43;;;2.53;;
38123;SDS011;23934;47.998;9.832;2024-02-15T02:20:36;6.10;;;2.65;;
38123;SDS011;23934;47.998;9.832;2024-02-15T02:23:15;8.98;;;3.10;;
38123;SDS011;23934;47.998;9.832;2024-02-15T02:25:41;7.55;;;3.05;;
38123;SDS011;23934;47.998;9.832;2024-02-15T02:28:08;6.65;;;2.17;;
38123;SDS011;23934;47.998;9.832;2024-02-15T02:30:35;6.07;;;2.53;;
38123;SDS011;23934;47.998;9.832;2024-02-15T02:33:01;12.73;;;2.97;;
38123;SDS011;23934;47.998;9.832;2024-02-15T02:35:27;14.13;;;3.28;;
38123;SDS011;23934;47.998;9.832;2024-02-15T02:37:54;8.27;;;3.38;;
38123;SDS011;23934;47.998;9.832;2024-02-15T02:40:21;10.27;;;3.28;;
38123;SDS011;23934;47.998;9.832;2024-02-15T02:45:13;7.97;;;3.78;;
38123;SDS011;23934;47.998;9.832;2024-02-15T02:47:39;6.28;;;3.33;;
38123;SDS011;23934;47.998;9.832;2024-02-15T02:50:05;12.23;;;4.38;;
38123;SDS011;23934;47.998;9.832;2024-02-15T02:52:33;8.95;;;4.00;;
38123;SDS011;23934;47.998;9.832;2024-02-15T02:54:59;8.07;;;3.42;;
38123;SDS011;23934;47.998;9.832;2024-02-15T02:57:26;15.93;;;3.45;;
38123;SDS011;23934;47.998;9.832;2024-02-15T02:59:52;9.65;;;3.72;;
38123;SDS011;23934;47.998;9.832;2024-02-15T03:02:18;8.27;;;3.33;;
38123;SDS011;23934;47.998;9.832;2024-02-15T03:04:43;9.35;;;3.83;;
38123;SDS011;23934;47.998;9.832;2024-02-15T03:07:09;8.73;;;3.85;;
38123;SDS011;23934;47.998;9.832;2024-02-15T03:09:42;9.13;;;3.78;;
38123;SDS011;23934;47.998;9.832;2024-02-15T03:12:08;8.88;;;3.63;;
38123;SDS011;23934;47.998;9.832;2024-02-15T03:14:34;9.48;;;3.80;;
38123;SDS011;23934;47.998;9.832;2024-02-15T03:17:00;5.63;;;2.83;;
38123;SDS011;23934;47.998;9.832;2024-02-15T03:19:28;7.82;;;3.17;;
38123;SDS011;23934;47.998;9.832;2024-02-15T03:21:55;7.57;;;3.42;;
38123;SDS011;23934;47.998;9.832;2024-02-15T03:24:21;6.25;;;3.17;;
38123;SDS011;23934;47.998;9.832;2024-02-15T03:26:47;10.68;;;3.08;;
38123;SDS011;23934;47.998;9.832;2024-02-15T03:29:13;10.70;;;3.63;;
38123;SDS011;23934;47.998;9.832;2024-02-15T03:31:39;8.82;;;3.33;;
38123;SDS011;23934;47.998;9.832;2024-02-15T03:34:05;7.00;;;3.10;;
38123;SDS011;23934;47.998;9.832;2024-02-15T03:36:31;6.60;;;2.80;;
38123;SDS011;23934;47.998;9.832;2024-02-15T03:38:58;6.70;;;3.00;;
38123;SDS011;23934;47.998;9.832;2024-02-15T03:41:26;9.23;;;3.53;;
38123;SDS011;23934;47.998;9.832;2024-02-15T03:43:55;9.73;;;2.78;;
38123;SDS011;23934;47.998;9.832;2024-02-15T03:46:23;8.38;;;3.45;;
38123;SDS011;23934;47.998;9.832;2024-02-15T03:48:49;9.50;;;3.72;;
38123;SDS011;23934;47.998;9.832;2024-02-15T03:51:18;10.45;;;4.10;;
38123;SDS011;23934;47.998;9.832;2024-02-15T03:53:45;9.90;;;3.42;;
38123;SDS011;23934;47.998;9.832;2024-02-15T03:56:12;6.75;;;3.40;;
38123;SDS011;23934;47.998;9.832;2024-02-15T03:58:38;8.50;;;3.97;;
38123;SDS011;23934;47.998;9.832;2024-02-15T04:01:04;12.02;;;3.83;;
38123;SDS011;23934;47.998;9.832;2024-02-15T04:03:31;6.05;;;3.30;;
38123;SDS011;23934;47.998;9.832;2024-02-15T04:05:59;12.90;;;3.03;;
38123;SDS011;23934;47.998;9.832;2024-02-15T04:08:25;10.75;;;3.05;;
38123;SDS011;23934;47.998;9.832;2024-02-15T04:10:51;8.45;;;3.25;;
38123;SDS011;23934;47.998;9.832;2024-02-15T04:13:18;8.02;;;3.55;;
38123;SDS011;23934;47.998;9.832;2024-02-15T04:15:44;8.07;;;3.35;;
38123;SDS011;23934;47.998;9.832;2024-02-15T04:18:12;10.93;;;3.67;;
38123;SDS011;23934;47.998;9.832;2024-02-15T04:20:39;55.88;;;17.83;;
38123;SDS011;23934;47.998;9.832;2024-02-15T04:23:10;37.77;;;14.17;;
38123;SDS011;23934;47.998;9.832;2024-02-15T04:25:35;15.65;;;5.47;;
38123;SDS011;23934;47.998;9.832;2024-02-15T04:28:01;8.68;;;3.08;;
38123;SDS011;23934;47.998;9.832;2024-02-15T04:30:29;8.18;;;3.80;;
38123;SDS011;23934;47.998;9.832;2024-02-15T04:32:55;9.13;;;3.03;;
38123;SDS011;23934;47.998;9.832;2024-02-15T04:35:21;9.73;;;3.00;;
38123;SDS011;23934;47.998;9.832;2024-02-15T04:37:47;10.80;;;3.63;;
38123;SDS011;23934;47.998;9.832;2024-02-15T04:40:14;7.43;;;3.55;;
38123;SDS011;23934;47.998;9.832;2024-02-15T04:42:43;7.18;;;3.17;;
38123;SDS011;23934;47.998;9.832;2024-02-15T04:45:10;8.70;;;3.63;;
38123;SDS011;23934;47.998;9.832;2024-02-15T04:47:38;7.43;;;3.60;;
38123;SDS011;23934;47.998;9.832;2024-02-15T04:52:36;23.02;;;8.60;;
38123;SDS011;23934;47.998;9.832;2024-02-15T04:55:02;7.93;;;3.95;;
38123;SDS011;23934;47.998;9.832;2024-02-15T04:57:30;7.88;;;3.13;;
38123;SDS011;23934;47.998;9.832;2024-02-15T04:59:58;8.88;;;3.70;;
38123;SDS011;23934;47.998;9.832;2024-02-15T05:02:24;7.90;;;3.30;;
38123;SDS011;23934;47.998;9.832;2024-02-15T05:04:50;10.77;;;3.65;;
38123;SDS011;23934;47.998;9.832;2024-02-15T05:07:21;12.85;;;3.83;;
38123;SDS011;23934;47.998;9.832;2024-02-15T05:09:50;7.38;;;3.03;;
38123;SDS011;23934;47.998;9.832;2024-02-15T05:14:45;5.88;;;2.78;;
38123;SDS011;23934;47.998;9.832;2024-02-15T05:17:10;6.40;;;2.92;;
38123;SDS011;23934;47.998;9.832;2024-02-15T05:19:37;11.77;;;3.03;;
38123;SDS011;23934;47.998;9.832;2024-02-15T05:22:03;11.43;;;3.78;;
38123;SDS011;23934;47.998;9.832;2024-02-15T05:24:31;9.90;;;3.70;;
38123;SDS011;23934;47.998;9.832;2024-02-15T05:26:57;6.20;;;3.35;;
38123;SDS011;23934;47.998;9.832;2024-02-15T05:29:23;9.25;;;3.55;;
38123;SDS011;23934;47.998;9.832;2024-02-15T05:31:48;11.32;;;3.42;;
38123;SDS011;23934;47.998;9.832;2024-02-15T05:34:19;9.52;;;4.35;;
38123;SDS011;23934;47.998;9.832;2024-02-15T05:36:45;7.90;;;3.42;;
38123;SDS011;23934;47.998;9.832;2024-02-15T05:39:13;9.13;;;3.55;;
38123;SDS011;23934;47.998;9.832;2024-02-15T05:41:39;18.17;;;7.20;;
38123;SDS011;23934;47.998;9.832;2024-02-15T05:44:05;8.13;;;3.90;;
38123;SDS011;23934;47.998;9.832;2024-02-15T05:46:32;12.73;;;4.88;;
38123;SDS011;23934;47.998;9.832;2024-02-15T05:49:03;13.85;;;4.25;;
38123;SDS011;23934;47.998;9.832;2024-02-15T05:51:29;8.30;;;3.50;;
38123;SDS011;23934;47.998;9.832;2024-02-15T05:53:56;10.50;;;3.83;;
38123;SDS011;23934;47.998;9.832;2024-02-15T05:56:25;10.57;;;4.20;;
38123;SDS011;23934;47.998;9.832;2024-02-15T05:58:53;8.93;;;4.05;;
38123;SDS011;23934;47.998;9.832;2024-02-15T06:01:19;12.23;;;4.30;;
38123;SDS011;23934;47.998;9.832;2024-02-15T06:03:45;6.85;;;3.72;;
38123;SDS011;23934;47.998;9.832;2024-02-15T06:06:13;10.68;;;3.67;;
38123;SDS011;23934;47.998;9.832;2024-02-15T06:08:39;11.95;;;3.50;;
38123;SDS011;23934;47.998;9.832;2024-02-15T06:11:05;7.57;;;3.42;;
38123;SDS011;23934;47.998;9.832;2024-02-15T06:13:31;8.43;;;3.40;;
38123;SDS011;23934;47.998;9.832;2024-02-15T06:15:57;9.75;;;3.78;;
38123;SDS011;23934;47.998;9.832;2024-02-15T06:18:24;12.32;;;3.20;;
38123;SDS011;23934;47.998;9.832;2024-02-15T06:20:52;10.25;;;3.60;;
38123;SDS011;23934;47.998;9.832;2024-02-15T06:23:18;7.05;;;2.67;;
38123;SDS011;23934;47.998;9.832;2024-02-15T06:25:44;7.72;;;2.97;;
38123;SDS011;23934;47.998;9.832;2024-02-15T06:28:12;9.60;;;3.35;;
38123;SDS011;23934;47.998;9.832;2024-02-15T06:30:44;6.97;;;3.70;;
38123;SDS011;23934;47.998;9.832;2024-02-15T06:33:29;7.68;;;3.78;;
38123;SDS011;23934;47.998;9.832;2024-02-15T06:36:13;9.38;;;3.28;;
38123;SDS011;23934;47.998;9.832;2024-02-15T06:38:58;7.55;;;3.45;;
38123;SDS011;23934;47.998;9.832;2024-02-15T06:41:42;11.15;;;3.72;;
38123;SDS011;23934;47.998;9.832;2024-02-15T06:44:08;6.75;;;3.63;;
38123;SDS011;23934;47.998;9.832;2024-02-15T06:46:34;6.47;;;2.83;;
38123;SDS011;23934;47.998;9.832;2024-02-15T06:49:00;8.32;;;3.38;;
38123;SDS011;23934;47.998;9.832;2024-02-15T06:51:29;11.85;;;4.13;;
38123;SDS011;23934;47.998;9.832;2024-02-15T06:53:55;11.90;;;3.78;;
38123;SDS011;23934;47.998;9.832;2024-02-15T06:56:21;14.38;;;4.20;;
38123;SDS011;23934;47.998;9.832;2024-02-15T06:58:49;7.13;;;3.28;;
38123;SDS011;23934;47.998;9.832;2024-02-15T07:01:15;10.02;;;3.78;;
38123;SDS011;23934;47.998;9.832;2024-02-15T07:03:42;8.25;;;3.50;;
38123;SDS011;23934;47.998;9.832;2024-02-15T07:06:10;13.90;;;4.18;;
38123;SDS011;23934;47.998;9.832;2024-02-15T07:08:38;10.98;;;4.25;;
38123;SDS011;23934;47.998;9.832;2024-02-15T07:11:06;10.10;;;3.60;;
38123;SDS011;23934;47.998;9.832;2024-02-15T07:13:34;9.20;;;3.95;;
38123;SDS011;23934;47.998;9.832;2024-02-15T07:16:01;12.00;;;4.40;;
38123;SDS011;23934;47.998;9.832;2024-02-15T07:18:26;9.38;;;4.43;;
38123;SDS011;23934;47.998;9.832;2024-02-15T07:20:52;11.48;;;4.78;;
38123;SDS011;23934;47.998;9.832;2024-02-15T07:23:18;18.33;;;5.35;;
38123;SDS011;23934;47.998;9.832;2024-02-15T07:25:45;12.32;;;3.88;;
38123;SDS011;23934;47.998;9.832;2024-02-15T07:28:13;11.77;;;4.20;;
38123;SDS011;23934;47.998;9.832;2024-02-15T07:30:39;6.38;;;3.38;;
38123;SDS011;23934;47.998;9.832;2024-02-15T07:33:05;8.40;;;4.15;;
38123;SDS011;23934;47.998;9.832;2024-02-15T07:35:32;11.45;;;4.68;;
38123;SDS011;23934;47.998;9.832;2024-02-15T07:38:00;9.52;;;4.38;;
38123;SDS011;23934;47.998;9.832;2024-02-15T07:40:26;11.43;;;4.53;;
38123;SDS011;23934;47.998;9.832;2024-02-15T07:42:54;9.48;;;4.30;;
38123;SDS011;23934;47.998;9.832;2024-02-15T07:45:20;9.65;;;3.65;;
38123;SDS011;23934;47.998;9.832;2024-02-15T07:47:46;11.25;;;4.50;;
38123;SDS011;23934;47.998;9.832;2024-02-15T07:50:17;8.18;;;3.83;;
38123;SDS011;23934;47.998;9.832;2024-02-15T07:52:48;12.60;;;4.53;;
38123;SDS011;23934;47.998;9.832;2024-02-15T07:55:14;20.65;;;4.43;;
38123;SDS011;23934;47.998;9.832;2024-02-15T07:57:40;10.48;;;4.05;;
38123;SDS011;23934;47.998;9.832;2024-02-15T08:00:06;11.60;;;3.97;;
38123;SDS011;23934;47.998;9.832;2024-02-15T08:02:39;8.23;;;4.70;;
38123;SDS011;23934;47.998;9.832;2024-02-15T08:05:06;8.57;;;3.92;;
38123;SDS011;23934;47.998;9.832;2024-02-15T08:07:35;8.25;;;3.88;;
38123;SDS011;23934;47.998;9.832;2024-02-15T08:10:01;6.35;;;3.08;;
38123;SDS011;23934;47.998;9.832;2024-02-15T08:12:31;6.32;;;3.13;;
38123;SDS011;23934;47.998;9.832;2024-02-15T08:14:57;7.18;;;3.08;;
38123;SDS011;23934;47.998;9.832;2024-02-15T08:17:23;7.68;;;3.00;;
38123;SDS011;23934;47.998;9.832;2024-02-15T08:19:51;6.45;;;2.78;;
38123;SDS011;23934;47.998;9.832;2024-02-15T08:22:17;5.57;;;2.50;;
38123;SDS011;23934;47.998;9.832;2024-02-15T08:24:48;4.90;;;2.17;;
38123;SDS011;23934;47.998;9.832;2024-02-15T08:27:14;5.18;;;2.65;;
38123;SDS011;23934;47.998;9.832;2024-02-15T08:29:41;4.90;;;2.10;;
38123;SDS011;23934;47.998;9.832;2024-02-15T08:32:07;3.20;;;1.83;;
38123;SDS011;23934;47.998;9.832;2024-02-15T08:34:33;5.88;;;1.90;;
38123;SDS011;23934;47.998;9.832;2024-02-15T08:36:59;3.85;;;1.63;;
38123;SDS011;23934;47.998;9.832;2024-02-15T08:39:24;6.78;;;1.77;;
38123;SDS011;23934;47.998;9.832;2024-02-15T08:41:50;3.58;;;1.70;;
38123;SDS011;23934;47.998;9.832;2024-02-15T08:44:18;6.05;;;2.40;;
38123;SDS011;23934;47.998;9.832;2024-02-15T08:46:45;4.88;;;2.00;;
38123;SDS011;23934;47.998;9.832;2024-02-15T08:49:11;2.60;;;1.10;;
38123;SDS011;23934;47.998;9.832;2024-02-15T08:51:38;3.17;;;1.55;;
38123;SDS011;23934;47.998;9.832;2024-02-15T08:54:04;2.08;;;1.15;;
38123;SDS011;23934;47.998;9.832;2024-02-15T08:56:30;3.80;;;1.20;;
38123;SDS011;23934;47.998;9.832;2024-02-15T08:58:58;1.75;;;1.00;;
38123;SDS011;23934;47.998;9.832;2024-02-15T09:01:24;3.20;;;1.25;;
38123;SDS011;23934;47.998;9.832;2024-02-15T09:03:50;2.67;;;1.15;;
38123;SDS011;23934;47.998;9.832;2024-02-15T09:06:16;1.58;;;0.90;;
38123;SDS011;23934;47.998;9.832;2024-02-15T09:08:42;4.88;;;1.52;;
38123;SDS011;23934;47.998;9.832;2024-02-15T09:11:08;1.90;;;1.00;;
38123;SDS011;23934;47.998;9.832;2024-02-15T09:13:37;1.08;;;0.80;;
38123;SDS011;23934;47.998;9.832;2024-02-15T09:16:03;3.63;;;1.10;;
38123;SDS011;23934;47.998;9.832;2024-02-15T09:18:29;2.33;;;1.05;;
38123;SDS011;23934;47.998;9.832;2024-02-15T09:20:55;2.75;;;1.05;;
38123;SDS011;23934;47.998;9.832;2024-02-15T09:23:22;4.80;;;1.83;;
38123;SDS011;23934;47.998;9.832;2024-02-15T09:25:48;1.95;;;1.10;;
38123;SDS011;23934;47.998;9.832;2024-02-15T09:28:17;2.05;;;1.40;;
38123;SDS011;23934;47.998;9.832;2024-02-15T09:30:49;4.18;;;1.10;;
38123;SDS011;23934;47.998;9.832;2024-02-15T09:33:24;2.92;;;1.25;;
38123;SDS011;23934;47.998;9.832;2024-02-15T09:35:51;2.50;;;1.40;;
38123;SDS011;23934;47.998;9.832;2024-02-15T09:38:19;2.17;;;1.30;;
38123;SDS011;23934;47.998;9.832;2024-02-15T09:40:49;2.28;;;1.52;;
38123;SDS011;23934;47.998;9.832;2024-02-15T09:43:16;2.55;;;1.08;;
38123;SDS011;23934;47.998;9.832;2024-02-15T09:45:42;4.00;;;1.60;;
38123;SDS011;23934;47.998;9.832;2024-02-15T09:48:08;2.50;;;1.50;;
38123;SDS011;23934;47.998;9.832;2024-02-15T09:50:35;3.75;;;1.58;;
38123;SDS011;23934;47.998;9.832;2024-02-15T09:53:03;3.47;;;1.67;;
38123;SDS011;23934;47.998;9.832;2024-02-15T09:55:31;7.38;;;1.65;;
38123;SDS011;23934;47.998;9.832;2024-02-15T09:57:59;4.65;;;1.75;;
38123;SDS011;23934;47.998;9.832;2024-02-15T10:00:25;3.50;;;1.67;;
38123;SDS011;23934;47.998;9.832;2024-02-15T10:02:51;4.10;;;1.50;;
38123;SDS011;23934;47.998;9.832;2024-02-15T10:05:18;2.58;;;1.38;;
38123;SDS011;23934;47.998;9.832;2024-02-15T10:07:44;3.90;;;1.83;;
38123;SDS011;23934;47.998;9.832;2024-02-15T10:10:14;2.67;;;1.50;;
38123;SDS011;23934;47.998;9.832;2024-02-15T10:12:45;2.85;;;1.52;;
38123;SDS011;23934;47.998;9.832;2024-02-15T10:17:59;2.05;;;1.08;;
38123;SDS011;23934;47.998;9.832;2024-02-15T10:20:25;2.83;;;1.67;;
38123;SDS011;23934;47.998;9.832;2024-02-15T10:25:25;1.23;;;1.13;;
38123;SDS011;23934;47.998;9.832;2024-02-15T10:27:52;1.77;;;1.10;;
38123;SDS011;23934;47.998;9.832;2024-02-15T10:30:19;2.72;;;1.40;;
38123;SDS011;23934;47.998;9.832;2024-02-15T10:32:45;2.20;;;1.30;;
38123;SDS011;23934;47.998;9.832;2024-02-15T10:35:20;1.83;;;1.20;;
38123;SDS011;23934;47.998;9.832;2024-02-15T10:37:47;2.10;;;1.10;;
38123;SDS011;23934;47.998;9.832;2024-02-15T10:40:14;3.83;;;1.40;;
38123;SDS011;23934;47.998;9.832;2024-02-15T10:42:43;4.55;;;1.10;;
38123;SDS011;23934;47.998;9.832;2024-02-15T10:45:11;2.70;;;1.20;;
38123;SDS011;23934;47.998;9.832;2024-02-15T10:47:39;5.68;;;1.23;;
38123;SDS011;23934;47.998;9.832;2024-02-15T10:50:06;2.53;;;1.13;;
38123;SDS011;23934;47.998;9.832;2024-02-15T10:52:32;1.90;;;1.20;;
38123;SDS011;23934;47.998;9.832;2024-02-15T10:55:05;2.72;;;1.00;;
38123;SDS011;23934;47.998;9.832;2024-02-15T10:57:35;2.45;;;1.17;;
38123;SDS011;23934;47.998;9.832;2024-02-15T11:00:04;2.42;;;1.00;;
38123;SDS011;23934;47.998;9.832;2024-02-15T11:02:38;2.55;;;1.05;;
38123;SDS011;23934;47.998;9.832;2024-02-15T11:05:09;2.55;;;0.80;;
38123;SDS011;23934;47.998;9.832;2024-02-15T11:07:35;1.83;;;1.10;;
38123;SDS011;23934;47.998;9.832;2024-02-15T11:10:02;3.15;;;1.00;;
38123;SDS011;23934;47.998;9.832;2024-02-15T11:12:33;2.25;;;1.08;;
38123;SDS011;23934;47.998;9.832;2024-02-15T11:14:59;1.73;;;1.00;;
38123;SDS011;23934;47.998;9.832;2024-02-15T11:20:10;1.92;;;1.08;;
38123;SDS011;23934;47.998;9.832;2024-02-15T11:22:37;1.33;;;0.90;;
38123;SDS011;23934;47.998;9.832;2024-02-15T11:25:04;3.90;;;1.08;;
38123;SDS011;23934;47.998;9.832;2024-02-15T11:27:37;2.47;;;1.10;;
38123;SDS011;23934;47.998;9.832;2024-02-15T11:30:05;4.38;;;0.98;;
38123;SDS011;23934;47.998;9.832;2024-02-15T11:35:18;3.25;;;1.05;;
38123;SDS011;23934;47.998;9.832;2024-02-15T11:40:17;2.53;;;1.05;;
38123;SDS011;23934;47.998;9.832;2024-02-15T11:42:44;1.20;;;0.80;;
38123;SDS011;23934;47.998;9.832;2024-02-15T11:45:11;1.38;;;0.82;;
38123;SDS011;23934;47.998;9.832;2024-02-15T11:47:38;2.15;;;0.88;;
38123;SDS011;23934;47.998;9.832;2024-02-15T11:50:08;1.30;;;0.70;;
38123;SDS011;23934;47.998;9.832;2024-02-15T11:52:37;0.70;;;0.57;;
38123;SDS011;23934;47.998;9.832;2024-02-15T11:55:04;2.00;;;0.55;;
38123;SDS011;23934;47.998;9.832;2024-02-15T11:57:32;0.93;;;0.57;;
38123;SDS011;23934;47.998;9.832;2024-02-15T12:02:48;4.82;;;0.82;;
38123;SDS011;23934;47.998;9.832;2024-02-15T12:05:33;0.60;;;0.55;;
38123;SDS011;23934;47.998;9.832;2024-02-15T12:08:18;1.15;;;0.60;;
38123;SDS011;23934;47.998;9.832;2024-02-15T12:11:02;1.23;;;0.70;;
38123;SDS011;23934;47.998;9.832;2024-02-15T12:13:50;1.85;;;0.90;;
38123;SDS011;23934;47.998;9.832;2024-02-15T12:16:35;1.67;;;0.90;;
38123;SDS011;23934;47.998;9.832;2024-02-15T12:19:20;2.10;;;0.88;;
38123;SDS011;23934;47.998;9.832;2024-02-15T12:21:47;5.03;;;1.30;;
38123;SDS011;23934;47.998;9.832;2024-02-15T12:24:13;2.58;;;1.10;;
38123;SDS011;23934;47.998;9.832;2024-02-15T12:26:41;1.67;;;0.80;;
38123;SDS011;23934;47.998;9.832;2024-02-15T12:29:07;2.47;;;1.33;;
38123;SDS011;23934;47.998;9.832;2024-02-15T12:31:35;4.90;;;1.25;;
38123;SDS011;23934;47.998;9.832;2024-02-15T12:34:03;2.88;;;1.25;;
38123;SDS011;23934;47.998;9.832;2024-02-15T12:36:35;7.70;;;1.00;;
38123;SDS011;23934;47.998;9.832;2024-02-15T12:39:03;2.45;;;1.33;;
38123;SDS011;23934;47.998;9.832;2024-02-15T12:41:36;3.95;;;1.42;;
38123;SDS011;23934;47.998;9.832;2024-02-15T12:44:02;1.85;;;0.80;;
38123;SDS011;23934;47.998;9.832;2024-02-15T12:46:29;1.17;;;0.68;;
38123;SDS011;23934;47.998;9.832;2024-02-15T12:49:07;2.40;;;1.00;;
38123;SDS011;23934;47.998;9.832;2024-02-15T12:51:38;4.43;;;0.95;;
38123;SDS011;23934;47.998;9.832;2024-02-15T12:54:07;2.95;;;0.80;;
38123;SDS011;23934;47.998;9.832;2024-02-15T12:56:34;1.77;;;0.83;;
38123;SDS011;23934;47.998;9.832;2024-02-15T12:59:01;2.92;;;1.35;;
38123;SDS011;23934;47.998;9.832;2024-02-15T13:01:27;4.05;;;1.13;;
38123;SDS011;23934;47.998;9.832;2024-02-15T13:03:54;2.58;;;1.20;;
38123;SDS011;23934;47.998;9.832;2024-02-15T13:06:20;1.48;;;0.80;;
38123;SDS011;23934;47.998;9.832;2024-02-15T13:08:48;1.88;;;1.20;;
38123;SDS011;23934;47.998;9.832;2024-02-15T13:11:14;2.92;;;1.20;;
38123;SDS011;23934;47.998;9.832;2024-02-15T13:13:41;2.92;;;1.20;;
38123;SDS011;23934;47.998;9.832;2024-02-15T13:16:07;2.03;;;1.08;;
38123;SDS011;23934;47.998;9.832;2024-02-15T13:18:33;1.90;;;1.00;;
38123;SDS011;23934;47.998;9.832;2024-02-15T13:20:59;1.70;;;0.88;;
38123;SDS011;23934;47.998;9.832;2024-02-15T13:23:25;2.05;;;1.08;;
38123;SDS011;23934;47.998;9.832;2024-02-15T13:25:53;4.00;;;1.08;;
38123;SDS011;23934;47.998;9.832;2024-02-15T13:28:21;2.25;;;0.80;;
38123;SDS011;23934;47.998;9.832;2024-02-15T13:30:48;4.53;;;1.00;;
38123;SDS011;23934;47.998;9.832;2024-02-15T13:33:14;2.75;;;0.93;;
38123;SDS011;23934;47.998;9.832;2024-02-15T13:35:41;4.13;;;0.77;;
38123;SDS011;23934;47.998;9.832;2024-02-15T13:38:07;2.45;;;0.60;;
38123;SDS011;23934;47.998;9.832;2024-02-15T13:40:39;0.90;;;0.60;;
38123;SDS011;23934;47.998;9.832;2024-02-15T13:43:06;1.17;;;0.60;;
38123;SDS011;23934;47.998;9.832;2024-02-15T13:45:40;2.17;;;0.82;;
38123;SDS011;23934;47.998;9.832;2024-02-15T13:48:07;3.55;;;0.90;;
38123;SDS011;23934;47.998;9.832;2024-02-15T13:50:34;2.25;;;1.10;;
38123;SDS011;23934;47.998;9.832;2024-02-15T13:53:00;2.10;;;0.98;;
38123;SDS011;23934;47.998;9.832;2024-02-15T13:55:29;3.70;;;0.85;;
38123;SDS011;23934;47.998;9.832;2024-02-15T13:57:55;3.13;;;0.80;;
38123;SDS011;23934;47.998;9.832;2024-02-15T14:00:22;2.83;;;0.80;;
38123;SDS011;23934;47.998;9.832;2024-02-15T14:02:52;2.03;;;1.00;;
38123;SDS011;23934;47.998;9.832;2024-02-15T14:05:19;1.05;;;0.70;;
38123;SDS011;23934;47.998;9.832;2024-02-15T14:07:52;2.83;;;1.00;;
38123;SDS011;23934;47.998;9.832;2024-02-15T14:10:21;6.20;;;1.10;;
38123;SDS011;23934;47.998;9.832;2024-02-15T14:12:48;1.52;;;0.95;;
38123;SDS011;23934;47.998;9.832;2024-02-15T14:15:15;1.85;;;1.00;;
38123;SDS011;23934;47.998;9.832;2024-02-15T14:17:42;2.15;;;0.93;;
38123;SDS011;23934;47.998;9.832;2024-02-15T14:20:09;1.98;;;1.00;;
38123;SDS011;23934;47.998;9.832;2024-02-15T14:22:38;1.42;;;0.93;;
38123;SDS011;23934;47.998;9.832;2024-02-15T14:25:04;2.17;;;1.15;;
38123;SDS011;23934;47.998;9.832;2024-02-15T14:27:31;0.98;;;0.73;;
38123;SDS011;23934;47.998;9.832;2024-02-15T14:29:57;1.55;;;0.90;;
38123;SDS011;23934;47.998;9.832;2024-02-15T14:32:42;2.10;;;1.10;;
38123;SDS011;23934;47.998;9.832;2024-02-15T14:35:29;1.60;;;0.98;;
38123;SDS011;23934;47.998;9.832;2024-02-15T14:37:56;1.85;;;0.80;;
38123;SDS011;23934;47.998;9.832;2024-02-15T14:40:23;2.05;;;0.90;;
38123;SDS011;23934;47.998;9.832;2024-02-15T14:42:49;3.05;;;1.15;;
38123;SDS011;23934;47.998;9.832;2024-02-15T14:45:15;2.13;;;1.10;;
38123;SDS011;23934;47.998;9.832;2024-02-15T14:47:41;3.17;;;1.13;;
38123;SDS011;23934;47.998;9.832;2024-02-15T14:50:07;3.10;;;0.80;;
38123;SDS011;23934;47.998;9.832;2024-02-15T14:52:34;1.40;;;1.00;;
38123;SDS011;23934;47.998;9.832;2024-02-15T14:55:02;3.70;;;0.90;;
38123;SDS011;23934;47.998;9.832;2024-02-15T14:57:30;1.33;;;0.70;;
38123;SDS011;23934;47.998;9.832;2024-02-15T14:59:56;3.72;;;0.68;;
38123;SDS011;23934;47.998;9.832;2024-02-15T15:02:22;3.75;;;0.75;;
38123;SDS011;23934;47.998;9.832;2024-02-15T15:04:48;4.40;;;0.90;;
38123;SDS011;23934;47.998;9.832;2024-02-15T15:07:42;8.32;;;1.40;;
38123;SDS011;23934;47.998;9.832;2024-02-15T15:10:27;4.32;;;0.90;;
38123;SDS011;23934;47.998;9.832;2024-02-15T15:13:11;1.95;;;0.95;;